Rexford, New York
Current Conditions -  °F | °C
As of 12:51 PM on Thursday 30 Oct 2014 (Local Time) from KALB Reporting Station
Broken Clouds Broken Clouds  
Wind Chill: 51°   Ceiling: 4800
Heat Index: 51°   Visibility: 10mi
Dew Point: 36°   Wind: 12mph
Humidity: 56%   Direction: 280°W
Pressure: 29.98"   Gusts: 21mph
Location:  42.85°N, 73.89°W
Report Text: KALB 301651Z 28010G18KT 10SM SCT039 BKN048 11/02 A2998 RMK AO2 SLP155 T01060022
Loading
Personal Weather Stations






























Interactive Weather Map
Tropical Storm Tracking
New forecast layout! Learn more

10-Day Weather Forecast

Advertisements
Track Severe Weather on mobile